Time;durP1;ratioP1;P1;durP2;ratioP2;P2;SDS_P1;SDS_P2;PMS_P1;PMS_P2;Temp;Humidity;BMP_temperature;BMP_pressure;BME280_temperature;BME280_humidity;BME280_pressure;Samples;Min_cycle;Max_cycle;Signal;HPM_P1;HPM_P2
2024/01/03 00:00:28;;;;;;;0.70;0.50;;;10.80;99.90;;;;;;5068017;28;20223;-84
2024/01/03 00:02:55;;;;;;;0.60;0.50;;;10.80;99.90;;;;;;5069170;28;20184;-85
2024/01/03 00:05:23;;;;;;;0.60;0.50;;;10.80;99.90;;;;;;5065362;28;20203;-85
2024/01/03 00:07:49;;;;;;;0.80;0.60;;;10.60;99.90;;;;;;5052549;28;20188;-86
2024/01/03 00:10:49;;;;;;;0.90;0.60;;;10.70;99.90;;;;;;5053469;28;20185;-85
2024/01/03 00:13:32;;;;;;;0.70;0.50;;;10.90;99.90;;;;;;5052658;28;20617;-86
2024/01/03 00:16:04;;;;;;;1.98;0.60;;;10.20;99.90;;;;;;5051206;28;20183;-85
2024/01/03 00:18:51;;;;;;;0.60;0.50;;;10.60;99.90;;;;;;5051253;28;20194;-85
2024/01/03 00:21:28;;;;;;;0.60;0.52;;;10.90;99.90;;;;;;5047704;28;20229;-85
2024/01/03 00:24:00;;;;;;;1.25;0.60;;;10.60;99.90;;;;;;5050633;28;20206;-86
2024/01/03 00:26:28;;;;;;;0.98;0.65;;;10.20;99.90;;;;;;5047448;28;20705;-87
2024/01/03 00:28:54;;;;;;;1.23;0.65;;;10.70;99.90;;;;;;5041490;28;20298;-84
2024/01/03 00:31:23;;;;;;;1.83;0.75;;;10.30;99.90;;;;;;5047989;28;20198;-86
2024/01/03 00:33:49;;;;;;;1.55;0.60;;;10.50;99.90;;;;;;5050066;28;20184;-86
2024/01/03 00:36:16;;;;;;;1.00;0.63;;;10.20;99.90;;;;;;5048439;28;20202;-85
2024/01/03 00:38:42;;;;;;;1.00;0.70;;;11.00;99.90;;;;;;5047659;28;20204;-85
2024/01/03 00:41:12;;;;;;;1.15;0.90;;;10.70;99.90;;;;;;5047870;28;20537;-85
2024/01/03 00:43:41;;;;;;;1.95;0.85;;;10.80;99.90;;;;;;5049304;28;20183;-85
2024/01/03 00:46:08;;;;;;;1.83;0.75;;;10.60;99.90;;;;;;5049945;28;20663;-85
2024/01/03 00:48:34;;;;;;;1.15;0.73;;;10.70;99.90;;;;;;5046310;28;20238;-85
2024/01/03 00:51:01;;;;;;;1.60;0.70;;;10.60;99.90;;;;;;5049308;28;20193;-85
2024/01/03 00:53:27;;;;;;;2.55;0.90;;;10.90;99.90;;;;;;5049642;28;20567;-85
2024/01/03 00:55:53;;;;;;;1.83;0.70;;;10.50;99.90;;;;;;5050916;28;20207;-85
2024/01/03 00:58:19;;;;;;;1.35;0.80;;;10.50;99.90;;;;;;5052564;28;20295;-85
2024/01/03 01:00:46;;;;;;;2.65;1.15;;;10.70;99.90;;;;;;5046807;28;20211;-85
2024/01/03 01:03:12;;;;;;;1.67;0.95;;;11.10;99.90;;;;;;5050606;28;20190;-85
2024/01/03 01:05:37;;;;;;;1.70;1.00;;;11.10;99.90;;;;;;5056998;28;20569;-85
2024/01/03 01:08:03;;;;;;;1.00;0.70;;;11.00;99.90;;;;;;5054433;28;20191;-85
2024/01/03 01:10:29;;;;;;;1.83;0.75;;;11.00;99.90;;;;;;5061190;28;20223;-85
2024/01/03 01:12:56;;;;;;;1.57;0.70;;;11.30;99.90;;;;;;5062195;28;20610;-85
2024/01/03 01:15:21;;;;;;;2.75;0.88;;;10.70;99.90;;;;;;5064378;28;20216;-85
2024/01/03 01:17:47;;;;;;;1.20;0.87;;;10.80;99.90;;;;;;5063330;28;20267;-85
2024/01/03 01:20:13;;;;;;;0.80;0.70;;;10.60;99.90;;;;;;5059658;28;20290;-84
2024/01/03 01:22:38;;;;;;;1.97;0.70;;;10.60;99.90;;;;;;5053940;28;20184;-85
2024/01/03 01:25:04;;;;;;;1.17;0.60;;;10.40;99.90;;;;;;5051112;28;20208;-85
2024/01/03 01:27:30;;;;;;;1.02;0.70;;;10.50;99.90;;;;;;5051603;28;20184;-86
2024/01/03 01:29:55;;;;;;;1.53;0.83;;;10.50;99.90;;;;;;5049474;28;20193;-85
2024/01/03 01:32:21;;;;;;;1.17;0.60;;;10.40;99.90;;;;;;5052860;28;20691;-85
2024/01/03 01:34:46;;;;;;;1.20;0.80;;;10.60;99.90;;;;;;5048574;28;20208;-85
2024/01/03 01:37:12;;;;;;;2.20;0.93;;;10.40;99.90;;;;;;5051507;28;20221;-86
2024/01/03 01:39:38;;;;;;;0.93;0.70;;;10.80;99.90;;;;;;5055073;28;20206;-84
2024/01/03 01:42:04;;;;;;;2.22;0.75;;;10.50;99.90;;;;;;5065374;28;20176;-86
2024/01/03 01:44:29;;;;;;;0.90;0.60;;;10.30;99.90;;;;;;5054150;28;20207;-86
2024/01/03 01:46:56;;;;;;;1.47;0.70;;;11.00;99.90;;;;;;5053138;28;20244;-86
2024/01/03 01:49:22;;;;;;;2.00;0.88;;;10.50;99.90;;;;;;5052166;28;20551;-85
2024/01/03 01:51:48;;;;;;;1.02;0.77;;;10.80;99.90;;;;;;5048945;28;20195;-86
2024/01/03 01:54:13;;;;;;;1.23;0.70;;;11.50;99.90;;;;;;5050187;28;20216;-86
2024/01/03 01:56:40;;;;;;;2.37;1.00;;;10.60;99.90;;;;;;5051417;28;20190;-86
2024/01/03 01:59:07;;;;;;;2.90;0.77;;;10.70;99.90;;;;;;5052630;28;20568;-86
2024/01/03 02:01:34;;;;;;;1.33;0.80;;;11.10;99.90;;;;;;5053285;28;20209;-86
2024/01/03 02:04:03;;;;;;;0.80;0.80;;;10.90;99.90;;;;;;5053865;28;20343;-86
2024/01/03 02:06:29;;;;;;;0.90;0.60;;;10.30;99.90;;;;;;5050699;28;20225;-86
2024/01/03 02:08:54;;;;;;;0.90;0.70;;;11.40;99.90;;;;;;5062911;28;20195;-85
2024/01/03 02:11:20;;;;;;;2.03;0.60;;;10.60;99.90;;;;;;5050417;28;20447;-84
2024/01/03 02:13:49;;;;;;;0.70;0.60;;;10.50;99.90;;;;;;5045968;28;20196;-85
2024/01/03 02:16:14;;;;;;;0.70;0.60;;;10.80;99.90;;;;;;5050877;28;20192;-86
2024/01/03 02:18:41;;;;;;;4.97;0.70;;;10.30;99.90;;;;;;5052881;28;20267;-86
2024/01/03 02:21:13;;;;;;;1.02;0.68;;;10.40;99.90;;;;;;5051017;28;20215;-85
2024/01/03 02:23:39;;;;;;;1.70;0.50;;;10.10;99.90;;;;;;5050067;28;20545;-85
2024/01/03 02:26:05;;;;;;;0.60;0.40;;;10.60;99.90;;;;;;5050838;28;20176;-86
2024/01/03 02:28:30;;;;;;;0.50;0.40;;;10.40;99.90;;;;;;5047456;28;20818;-85
2024/01/03 02:30:57;;;;;;;0.70;0.50;;;10.10;99.90;;;;;;5051608;28;20283;-86
2024/01/03 02:33:22;;;;;;;0.60;0.40;;;10.30;99.90;;;;;;5052641;28;20187;-85
2024/01/03 02:35:48;;;;;;;0.70;0.57;;;10.20;99.90;;;;;;5051936;28;20222;-85
2024/01/03 02:38:13;;;;;;;1.37;0.50;;;10.30;99.90;;;;;;5050021;28;20711;-85
2024/01/03 02:40:39;;;;;;;0.60;0.50;;;10.10;99.90;;;;;;5050917;28;20614;-85
2024/01/03 02:43:05;;;;;;;1.00;0.60;;;10.40;99.90;;;;;;5052079;28;20179;-85
2024/01/03 02:45:30;;;;;;;0.70;0.50;;;10.20;99.90;;;;;;5047791;28;20703;-85
2024/01/03 02:47:56;;;;;;;0.70;0.70;;;10.20;99.90;;;;;;5053049;28;20221;-85
2024/01/03 02:50:21;;;;;;;0.83;0.60;;;10.60;99.90;;;;;;5053797;28;20187;-85
2024/01/03 02:52:47;;;;;;;1.53;0.40;;;10.20;99.90;;;;;;5054177;28;20290;-85
2024/01/03 02:55:12;;;;;;;0.70;0.60;;;10.60;99.90;;;;;;5052943;28;20718;-85
2024/01/03 02:57:38;;;;;;;0.53;0.40;;;10.70;99.90;;;;;;5055555;28;20189;-85
2024/01/03 03:00:04;;;;;;;0.90;0.50;;;10.20;99.90;;;;;;5051319;28;20230;-85
2024/01/03 03:02:29;;;;;;;0.95;0.70;;;10.20;99.90;;;;;;5054407;28;20183;-84
2024/01/03 03:04:55;;;;;;;1.00;0.50;;;10.00;99.90;;;;;;5053853;28;20633;-84
2024/01/03 03:07:20;;;;;;;0.93;0.53;;;10.20;99.90;;;;;;5053103;28;20203;-85
2024/01/03 03:09:46;;;;;;;0.70;0.60;;;9.90;99.90;;;;;;5050174;28;20180;-85
2024/01/03 03:12:11;;;;;;;0.70;0.50;;;10.30;99.90;;;;;;5052240;28;20187;-86
2024/01/03 03:14:37;;;;;;;0.60;0.50;;;10.00;99.90;;;;;;5049887;28;20252;-86
2024/01/03 03:17:02;;;;;;;0.70;0.60;;;10.10;99.90;;;;;;5055425;28;20182;-86
2024/01/03 03:19:29;;;;;;;0.80;0.70;;;10.00;99.90;;;;;;5050456;28;20537;-86
2024/01/03 03:21:55;;;;;;;0.60;0.60;;;9.30;99.90;;;;;;5059291;28;20239;-85
2024/01/03 03:24:20;;;;;;;0.60;0.60;;;9.90;99.90;;;;;;5051035;28;20243;-86
2024/01/03 03:26:47;;;;;;;0.60;0.50;;;9.80;99.90;;;;;;5052425;28;20445;-85
2024/01/03 03:29:12;;;;;;;0.70;0.57;;;10.20;99.90;;;;;;5065829;28;20173;-86
2024/01/03 03:31:38;;;;;;;1.60;1.00;;;9.90;99.90;;;;;;5057236;28;20174;-85
2024/01/03 03:34:03;;;;;;;1.00;0.70;;;10.10;99.90;;;;;;5067558;28;20337;-86
2024/01/03 03:36:29;;;;;;;1.10;0.70;;;9.90;99.90;;;;;;5067348;28;20216;-86
2024/01/03 03:38:54;;;;;;;0.80;0.70;;;9.60;99.90;;;;;;5065247;22;20275;-82
2024/01/03 03:41:21;;;;;;;1.53;0.80;;;9.30;99.90;;;;;;5040737;28;20207;-82
2024/01/03 03:43:46;;;;;;;1.88;0.70;;;9.60;99.90;;;;;;5035546;28;20291;-82
2024/01/03 03:46:12;;;;;;;1.10;0.60;;;9.60;99.90;;;;;;5038810;28;20247;-82
2024/01/03 03:48:37;;;;;;;1.30;0.70;;;9.40;99.90;;;;;;5039981;28;20213;-82
2024/01/03 03:51:04;;;;;;;0.70;0.70;;;9.70;99.90;;;;;;5040577;28;20195;-82
2024/01/03 03:53:30;;;;;;;0.80;0.70;;;9.50;99.90;;;;;;5039596;28;20180;-82
2024/01/03 03:55:55;;;;;;;0.80;0.70;;;9.30;99.90;;;;;;5033940;28;20342;-81
2024/01/03 03:58:21;;;;;;;1.23;0.70;;;9.60;99.90;;;;;;5042797;28;20191;-81
2024/01/03 04:00:46;;;;;;;1.53;1.43;;;9.20;99.90;;;;;;5050925;28;20578;-81
2024/01/03 04:03:12;;;;;;;1.30;0.90;;;9.70;99.90;;;;;;5037400;28;20192;-81
2024/01/03 04:05:38;;;;;;;1.67;0.93;;;9.60;99.90;;;;;;5037531;28;20292;-81
2024/01/03 04:08:04;;;;;;;2.22;1.10;;;9.30;99.90;;;;;;5033483;28;20187;-81
2024/01/03 04:10:30;;;;;;;1.52;0.65;;;9.60;99.90;;;;;;5033028;28;20231;-81
2024/01/03 04:12:56;;;;;;;0.70;0.70;;;9.40;99.90;;;;;;5035120;28;20486;-81
2024/01/03 04:15:22;;;;;;;1.47;1.07;;;9.10;99.90;;;;;;5031231;28;20203;-81
2024/01/03 04:17:48;;;;;;;1.70;0.75;;;9.70;99.90;;;;;;5032774;28;20505;-81
2024/01/03 04:20:14;;;;;;;1.63;1.00;;;10.00;99.90;;;;;;5032951;28;20209;-81
2024/01/03 04:22:43;;;;;;;1.23;0.90;;;9.50;99.90;;;;;;5031922;28;20198;-81
2024/01/03 04:25:09;;;;;;;1.95;0.80;;;9.70;99.90;;;;;;5035094;28;20203;-81
2024/01/03 04:27:35;;;;;;;0.93;0.70;;;9.70;99.90;;;;;;5032726;28;20192;-81
2024/01/03 04:30:00;;;;;;;2.60;1.13;;;10.10;99.90;;;;;;5029737;28;20644;-81
2024/01/03 04:32:26;;;;;;;2.43;1.00;;;10.10;99.90;;;;;;5035106;28;20443;-81
2024/01/03 04:34:51;;;;;;;3.07;1.17;;;9.50;99.90;;;;;;5041477;28;20691;-81
2024/01/03 04:37:17;;;;;;;3.20;0.70;;;9.30;99.90;;;;;;5036585;28;20641;-81
2024/01/03 04:39:42;;;;;;;1.37;0.97;;;9.30;99.90;;;;;;5030350;28;20206;-81
2024/01/03 04:42:08;;;;;;;0.93;0.90;;;9.50;99.90;;;;;;5034767;28;20210;-81
2024/01/03 04:44:34;;;;;;;0.83;0.70;;;9.90;99.90;;;;;;5031462;28;20211;-81
2024/01/03 04:47:00;;;;;;;2.20;1.00;;;9.80;99.90;;;;;;5033051;28;20183;-82
2024/01/03 04:49:25;;;;;;;2.00;0.97;;;9.40;99.90;;;;;;5031113;28;20206;-82
2024/01/03 04:51:51;;;;;;;3.23;1.20;;;9.70;99.90;;;;;;5028033;28;20188;-82
2024/01/03 04:54:16;;;;;;;1.47;1.20;;;9.90;99.90;;;;;;5027188;28;20297;-82
2024/01/03 04:56:42;;;;;;;1.83;0.70;;;9.40;99.90;;;;;;5031647;28;20830;-82
2024/01/03 04:59:07;;;;;;;1.97;0.83;;;9.40;99.90;;;;;;5032420;28;20192;-82
2024/01/03 05:01:33;;;;;;;1.90;0.90;;;9.40;99.90;;;;;;5029389;28;20215;-82
2024/01/03 05:04:00;;;;;;;2.37;0.87;;;9.50;99.90;;;;;;5031221;28;20230;-82
2024/01/03 05:06:25;;;;;;;1.20;0.70;;;9.70;99.90;;;;;;5037312;28;20207;-82
2024/01/03 05:08:51;;;;;;;2.50;0.97;;;9.70;99.90;;;;;;5034276;28;20652;-82
2024/01/03 05:11:16;;;;;;;2.70;1.03;;;9.70;99.90;;;;;;5034915;28;20268;-82
2024/01/03 05:13:42;;;;;;;4.90;1.00;;;9.70;99.90;;;;;;5032299;28;20193;-82
2024/01/03 05:16:07;;;;;;;1.37;0.83;;;9.30;99.90;;;;;;5030568;28;20190;-82
2024/01/03 05:18:33;;;;;;;1.57;0.80;;;9.70;99.90;;;;;;5035232;28;20278;-82
2024/01/03 05:20:58;;;;;;;2.13;1.00;;;9.30;99.90;;;;;;5031317;28;20226;-82
2024/01/03 05:23:24;;;;;;;3.20;1.03;;;9.70;99.90;;;;;;5029529;28;20618;-81
2024/01/03 05:25:49;;;;;;;1.10;0.90;;;9.90;99.90;;;;;;5036641;28;21666;-82
2024/01/03 05:28:15;;;;;;;1.83;0.90;;;9.40;99.90;;;;;;5031531;28;20266;-81
2024/01/03 05:30:40;;;;;;;4.43;1.20;;;9.20;99.90;;;;;;5027839;28;20198;-82
2024/01/03 05:33:06;;;;;;;2.30;0.80;;;9.20;99.90;;;;;;5030529;28;20203;-81
2024/01/03 05:35:32;;;;;;;0.97;0.70;;;9.20;99.90;;;;;;5031616;28;20683;-82
2024/01/03 05:37:57;;;;;;;2.30;1.00;;;9.30;99.90;;;;;;5029254;28;20483;-82
2024/01/03 05:40:23;;;;;;;3.07;1.10;;;9.70;99.90;;;;;;5027661;28;20230;-81
2024/01/03 05:42:49;;;;;;;3.00;1.10;;;9.90;99.90;;;;;;5028793;28;20184;-82
2024/01/03 05:45:15;;;;;;;2.28;0.95;;;10.10;99.90;;;;;;5030153;28;20658;-82
2024/01/03 05:47:40;;;;;;;1.30;0.70;;;10.00;99.90;;;;;;5032661;28;20216;-82
2024/01/03 05:50:08;;;;;;;2.23;0.70;;;9.90;99.90;;;;;;5032875;28;20184;-82
2024/01/03 05:52:35;;;;;;;1.85;0.98;;;10.10;99.90;;;;;;5035905;28;20210;-82
2024/01/03 05:55:01;;;;;;;2.67;1.10;;;10.00;99.90;;;;;;5034390;28;20204;-82
2024/01/03 05:57:26;;;;;;;2.43;1.23;;;10.00;99.90;;;;;;5033039;28;20196;-82
2024/01/03 05:59:52;;;;;;;2.60;0.97;;;9.50;99.90;;;;;;5029727;28;20183;-82
2024/01/03 06:02:17;;;;;;;1.43;0.90;;;9.60;99.90;;;;;;5034700;28;20190;-82
2024/01/03 06:04:44;;;;;;;1.57;0.80;;;10.60;99.90;;;;;;5031729;28;20466;-82
2024/01/03 06:07:10;;;;;;;1.67;0.90;;;9.90;99.90;;;;;;5030229;28;20203;-82
2024/01/03 06:09:36;;;;;;;3.90;1.00;;;9.80;99.90;;;;;;5033557;28;20681;-82
2024/01/03 06:12:02;;;;;;;2.15;0.90;;;10.10;99.90;;;;;;5056729;28;20275;-81
2024/01/03 06:14:27;;;;;;;0.87;0.70;;;10.10;99.90;;;;;;5032969;28;20615;-82
2024/01/03 06:16:53;;;;;;;2.37;1.07;;;10.10;99.90;;;;;;5034801;28;20636;-82
2024/01/03 06:19:18;;;;;;;3.53;1.10;;;10.80;99.90;;;;;;5032447;28;20181;-82
2024/01/03 06:21:44;;;;;;;1.60;0.90;;;10.40;99.90;;;;;;5032267;28;20211;-82
2024/01/03 06:24:09;;;;;;;2.13;0.90;;;9.80;99.90;;;;;;5031324;28;20772;-82
2024/01/03 06:26:35;;;;;;;2.10;0.80;;;10.40;99.90;;;;;;5032183;28;20707;-82
2024/01/03 06:29:01;;;;;;;3.85;0.95;;;10.40;99.90;;;;;;5036147;28;20208;-81
2024/01/03 06:31:26;;;;;;;2.10;1.07;;;9.70;99.90;;;;;;5022893;28;20188;-81
2024/01/03 06:33:52;;;;;;;1.57;1.00;;;10.30;99.90;;;;;;5032795;28;20196;-81
2024/01/03 06:36:17;;;;;;;4.13;2.23;;;10.60;99.90;;;;;;5039049;28;20275;-81
2024/01/03 06:38:43;;;;;;;2.17;0.80;;;10.30;99.90;;;;;;5039911;28;20225;-81
2024/01/03 06:41:09;;;;;;;1.33;1.17;;;10.10;99.90;;;;;;5034870;28;20191;-81
2024/01/03 06:43:35;;;;;;;1.30;0.90;;;10.50;99.90;;;;;;5034705;28;20355;-81
2024/01/03 06:46:00;;;;;;;2.80;0.90;;;9.80;99.90;;;;;;5033771;28;20280;-81
2024/01/03 06:48:25;;;;;;;2.07;1.00;;;10.20;99.90;;;;;;5035023;28;20615;-82
2024/01/03 06:50:51;;;;;;;2.03;0.80;;;9.80;99.90;;;;;;5031966;28;20202;-82
2024/01/03 06:53:17;;;;;;;1.53;0.77;;;9.70;99.90;;;;;;5035677;28;20192;-82
2024/01/03 06:55:43;;;;;;;1.35;0.90;;;10.00;99.90;;;;;;5034771;28;20212;-82
2024/01/03 06:58:08;;;;;;;3.47;0.90;;;9.90;99.90;;;;;;5030992;28;20595;-82
2024/01/03 07:00:34;;;;;;;2.90;1.43;;;10.00;99.90;;;;;;5034048;28;20287;-82
2024/01/03 07:03:01;;;;;;;1.20;0.70;;;9.80;99.90;;;;;;5034171;28;20180;-82
2024/01/03 07:05:26;;;;;;;1.85;0.90;;;9.90;99.90;;;;;;5032770;28;20207;-82
2024/01/03 07:07:52;;;;;;;2.60;1.00;;;10.20;99.90;;;;;;5032478;28;20179;-82
2024/01/03 07:10:17;;;;;;;3.77;0.87;;;9.60;99.90;;;;;;5035325;28;20562;-82
2024/01/03 07:12:43;;;;;;;2.33;1.10;;;9.90;99.90;;;;;;5031827;28;20195;-82
2024/01/03 07:15:10;;;;;;;0.90;0.70;;;9.60;99.90;;;;;;5034751;28;20250;-82
2024/01/03 07:17:35;;;;;;;2.75;1.13;;;10.30;99.90;;;;;;5038387;28;20188;-82
2024/01/03 07:20:01;;;;;;;1.20;0.77;;;9.60;99.90;;;;;;5034705;28;20269;-82
2024/01/03 07:22:26;;;;;;;1.90;1.30;;;9.60;99.90;;;;;;5030574;28;20202;-82
2024/01/03 07:24:52;;;;;;;1.20;1.00;;;10.10;99.90;;;;;;5031596;28;20207;-82
2024/01/03 07:27:17;;;;;;;1.33;1.00;;;10.10;99.90;;;;;;5034476;28;20656;-82
2024/01/03 07:29:43;;;;;;;3.20;1.00;;;10.20;99.90;;;;;;5032192;28;20223;-82
2024/01/03 07:32:08;;;;;;;2.57;0.90;;;10.30;99.90;;;;;;5032538;28;20274;-82
2024/01/03 07:34:34;;;;;;;0.87;0.60;;;10.80;99.90;;;;;;5034210;28;20352;-82
2024/01/03 07:36:59;;;;;;;0.93;0.70;;;10.30;99.90;;;;;;5032233;28;20217;-82
2024/01/03 07:39:25;;;;;;;2.47;1.03;;;10.60;99.90;;;;;;5030977;28;20199;-82
2024/01/03 07:41:51;;;;;;;2.53;0.90;;;10.10;99.90;;;;;;5033253;28;20216;-81
2024/01/03 07:44:16;;;;;;;1.98;0.90;;;10.40;99.90;;;;;;5030448;28;20199;-82
2024/01/03 07:46:42;;;;;;;3.60;1.03;;;10.80;99.90;;;;;;5031217;28;20299;-82
2024/01/03 07:49:07;;;;;;;2.53;1.10;;;10.00;99.90;;;;;;5029908;28;20190;-82
2024/01/03 07:51:38;;;;;;;2.97;1.10;;;10.40;99.90;;;;;;5032154;28;20204;-82
2024/01/03 07:54:09;;;;;;;2.75;1.00;;;10.60;99.90;;;;;;5035397;28;20208;-82
2024/01/03 07:56:36;;;;;;;1.90;0.85;;;10.90;99.90;;;;;;5032710;28;20210;-82
2024/01/03 07:59:01;;;;;;;2.35;0.73;;;10.70;99.90;;;;;;5037282;28;20204;-82
2024/01/03 08:01:27;;;;;;;4.37;1.27;;;10.40;99.90;;;;;;5035164;28;20218;-82
2024/01/03 08:03:54;;;;;;;2.50;0.80;;;10.70;99.90;;;;;;5033802;28;20204;-82
2024/01/03 08:06:22;;;;;;;1.35;0.80;;;10.50;99.90;;;;;;5030638;28;20831;-82
2024/01/03 08:08:48;;;;;;;1.70;0.70;;;10.40;99.90;;;;;;5032100;28;20192;-82
2024/01/03 08:11:13;;;;;;;1.97;0.70;;;10.60;99.90;;;;;;5034337;28;20220;-82
2024/01/03 08:13:39;;;;;;;2.00;1.10;;;10.60;99.90;;;;;;5035034;28;20191;-82
2024/01/03 08:16:08;;;;;;;2.50;1.57;;;10.30;99.90;;;;;;5029342;28;20629;-82
2024/01/03 08:18:33;;;;;;;1.67;0.85;;;10.60;99.90;;;;;;5034751;28;20188;-82
2024/01/03 08:20:59;;;;;;;1.53;1.00;;;10.80;99.90;;;;;;5030390;28;20223;-82
2024/01/03 08:23:24;;;;;;;3.20;1.40;;;10.80;99.90;;;;;;5036552;28;20188;-82
2024/01/03 08:25:50;;;;;;;2.00;0.87;;;11.10;99.90;;;;;;5032235;28;20228;-82
2024/01/03 08:28:15;;;;;;;1.97;1.10;;;10.80;99.90;;;;;;5033676;28;20611;-82
2024/01/03 08:30:41;;;;;;;2.80;0.93;;;10.70;99.90;;;;;;5032863;28;20212;-81
2024/01/03 08:33:06;;;;;;;1.77;0.70;;;10.60;99.90;;;;;;5034541;28;20202;-82
2024/01/03 08:35:32;;;;;;;1.87;1.00;;;11.30;99.90;;;;;;5034559;28;20215;-82
2024/01/03 08:37:57;;;;;;;5.00;1.00;;;11.70;99.90;;;;;;5041236;28;20199;-82
2024/01/03 08:40:24;;;;;;;2.87;1.50;;;10.90;99.90;;;;;;5034015;28;20204;-82
2024/01/03 08:42:49;;;;;;;1.83;0.93;;;11.40;99.90;;;;;;5036535;28;20196;-82
2024/01/03 08:45:15;;;;;;;3.30;0.80;;;11.40;99.90;;;;;;5032046;28;20209;-82
2024/01/03 08:47:40;;;;;;;2.33;0.80;;;10.90;99.90;;;;;;5029543;28;20278;-81
2024/01/03 08:50:06;;;;;;;2.90;1.03;;;11.40;99.90;;;;;;5034696;28;20275;-82
2024/01/03 08:52:31;;;;;;;2.33;0.60;;;11.20;99.90;;;;;;5031570;28;20200;-82
2024/01/03 08:54:59;;;;;;;2.93;1.10;;;11.50;99.90;;;;;;5031731;28;20211;-81
2024/01/03 08:57:24;;;;;;;1.20;0.80;;;10.80;99.90;;;;;;5033887;28;20218;-82
2024/01/03 08:59:50;;;;;;;2.70;1.00;;;11.20;99.90;;;;;;5035686;28;20618;-82
2024/01/03 09:02:15;;;;;;;5.67;2.50;;;11.20;99.90;;;;;;5032682;28;20635;-82
2024/01/03 09:04:41;;;;;;;1.00;0.80;;;11.10;99.90;;;;;;5029657;28;20298;-82
2024/01/03 09:07:07;;;;;;;5.33;1.10;;;11.30;99.90;;;;;;5029539;28;20185;-82
2024/01/03 09:09:32;;;;;;;1.67;0.80;;;11.10;99.90;;;;;;5031181;28;20684;-82
2024/01/03 09:11:58;;;;;;;1.97;0.83;;;11.60;99.90;;;;;;5034767;28;20188;-82
2024/01/03 09:14:23;;;;;;;4.00;1.17;;;11.20;99.90;;;;;;5032875;28;20216;-82
2024/01/03 09:16:50;;;;;;;1.60;1.00;;;11.30;99.90;;;;;;5036593;28;20196;-82
2024/01/03 09:19:16;;;;;;;1.45;0.70;;;11.50;99.90;;;;;;5032751;28;20615;-82
2024/01/03 09:21:45;;;;;;;2.00;1.00;;;11.90;99.90;;;;;;5036166;28;20297;-82
2024/01/03 09:24:11;;;;;;;1.33;1.20;;;11.50;99.90;;;;;;5036361;28;20202;-82
2024/01/03 09:26:37;;;;;;;1.90;0.70;;;12.10;99.90;;;;;;5039349;28;20178;-82
2024/01/03 09:29:02;;;;;;;1.10;0.70;;;12.10;99.90;;;;;;5036215;28;20443;-82
2024/01/03 09:31:30;;;;;;;3.17;0.77;;;11.50;99.90;;;;;;5038210;28;20189;-82
2024/01/03 09:33:55;;;;;;;1.38;0.90;;;11.30;99.90;;;;;;5033515;28;20210;-81
2024/01/03 09:36:21;;;;;;;1.47;0.60;;;12.00;99.90;;;;;;5037615;28;20316;-82
2024/01/03 09:38:47;;;;;;;1.53;0.90;;;12.40;99.90;;;;;;5034478;28;20205;-83
2024/01/03 09:41:13;;;;;;;1.43;1.30;;;12.60;99.90;;;;;;5034736;28;20210;-82
2024/01/03 09:43:42;;;;;;;1.35;0.80;;;12.80;99.90;;;;;;5032712;28;20231;-82
2024/01/03 09:46:11;;;;;;;3.63;0.70;;;12.60;99.90;;;;;;5035277;28;20183;-81
2024/01/03 09:48:41;;;;;;;0.95;0.82;;;12.10;99.90;;;;;;5040856;28;20232;-82
2024/01/03 09:51:10;;;;;;;2.35;1.60;;;11.80;99.90;;;;;;5036285;28;20193;-81
2024/01/03 09:53:37;;;;;;;2.03;0.80;;;12.10;99.90;;;;;;5035921;28;20220;-82
2024/01/03 09:56:02;;;;;;;2.35;0.82;;;12.50;99.90;;;;;;5040956;28;20181;-81
2024/01/03 09:58:28;;;;;;;1.83;0.70;;;12.30;99.90;;;;;;5036915;28;20440;-81
2024/01/03 10:00:54;;;;;;;1.77;0.70;;;12.20;99.90;;;;;;5037430;28;20213;-82
2024/01/03 10:03:20;;;;;;;3.05;0.75;;;11.70;99.90;;;;;;5035145;28;20243;-82
2024/01/03 10:05:46;;;;;;;1.23;0.97;;;12.10;99.90;;;;;;5036479;28;20198;-82
2024/01/03 10:08:18;;;;;;;1.20;0.90;;;12.40;99.90;;;;;;5033855;28;20540;-82
2024/01/03 10:10:45;;;;;;;2.00;1.00;;;12.10;99.90;;;;;;5030138;28;20205;-81
2024/01/03 10:13:19;;;;;;;1.10;0.85;;;12.30;99.90;;;;;;5031658;28;20187;-82
2024/01/03 10:15:45;;;;;;;1.65;1.00;;;12.00;99.90;;;;;;5031102;28;20550;-82
2024/01/03 10:18:14;;;;;;;3.83;1.33;;;11.90;99.90;;;;;;5036889;28;20570;-82
2024/01/03 10:20:40;;;;;;;1.00;0.77;;;11.80;99.90;;;;;;5035175;28;20305;-82
2024/01/03 10:23:19;;;;;;;1.83;0.97;;;11.90;99.90;;;;;;5033018;28;20202;-82
2024/01/03 10:25:45;;;;;;;1.20;0.80;;;11.90;99.90;;;;;;5042124;28;20494;-82
2024/01/03 10:28:20;;;;;;;1.60;0.82;;;11.40;99.90;;;;;;5035923;28;20190;-81
2024/01/03 10:30:52;;;;;;;1.60;0.70;;;11.80;99.90;;;;;;5033553;28;20253;-82
2024/01/03 10:33:18;;;;;;;1.45;0.80;;;11.80;99.90;;;;;;5035217;28;20261;-81
2024/01/03 10:35:44;;;;;;;1.65;1.00;;;12.70;99.90;;;;;;5033933;28;20210;-82
2024/01/03 10:38:10;;;;;;;1.43;1.23;;;12.30;99.90;;;;;;5035044;28;20268;-81
2024/01/03 10:40:44;;;;;;;2.22;1.00;;;12.50;99.90;;;;;;5029272;28;20221;-81
2024/01/03 10:43:10;;;;;;;5.75;0.90;;;12.30;99.90;;;;;;5031266;28;20670;-81
2024/01/03 10:45:36;;;;;;;1.45;1.10;;;12.00;99.90;;;;;;5031589;28;20670;-82
2024/01/03 10:48:02;;;;;;;3.43;1.00;;;11.90;99.90;;;;;;5038146;28;20185;-81
2024/01/03 10:50:28;;;;;;;1.83;1.10;;;11.70;99.90;;;;;;5036867;28;20186;-81
2024/01/03 10:52:57;;;;;;;1.60;1.00;;;12.30;99.90;;;;;;5034556;28;20429;-82
2024/01/03 10:55:36;;;;;;;2.00;0.70;;;11.60;99.90;;;;;;5037302;28;20679;-82
2024/01/03 10:58:14;;;;;;;1.30;0.80;;;12.10;99.90;;;;;;5039419;28;20196;-81
2024/01/03 11:00:57;;;;;;;1.83;0.90;;;12.40;99.90;;;;;;5032303;28;20292;-82
2024/01/03 11:03:26;;;;;;;1.58;1.00;;;12.50;99.90;;;;;;5033987;28;20252;-82
2024/01/03 11:06:18;;;;;;;2.55;0.88;;;12.00;99.90;;;;;;5036603;28;20186;-83
2024/01/03 11:08:50;;;;;;;5.90;1.73;;;12.40;99.90;;;;;;5031516;28;20209;-83
2024/01/03 11:11:28;;;;;;;1.75;0.88;;;12.60;99.90;;;;;;5032614;28;20641;-83
2024/01/03 11:13:55;;;;;;;1.77;0.70;;;12.00;99.90;;;;;;5031346;28;20225;-81
2024/01/03 11:16:40;;;;;;;1.02;0.70;;;12.20;99.90;;;;;;5035085;28;20193;-83
2024/01/03 11:19:07;;;;;;;1.67;0.60;;;13.10;99.90;;;;;;5030589;28;20190;-83
2024/01/03 11:21:35;;;;;;;1.10;0.95;;;12.40;99.90;;;;;;5031462;28;20206;-83
2024/01/03 11:24:01;;;;;;;1.35;0.90;;;12.50;99.90;;;;;;5035386;28;20198;-82
2024/01/03 11:26:52;;;;;;;1.80;0.80;;;13.10;99.90;;;;;;5021700;28;20206;-82
2024/01/03 11:29:36;;;;;;;3.00;0.90;;;12.90;99.90;;;;;;5028484;28;20205;-82
2024/01/03 11:32:29;;;;;;;0.90;0.70;;;12.30;99.90;;;;;;5031089;28;20209;-82
2024/01/03 11:34:55;;;;;;;1.73;0.68;;;13.00;99.90;;;;;;5032129;28;20289;-83
2024/01/03 11:37:24;;;;;;;2.03;0.80;;;13.30;99.90;;;;;;5031945;28;20186;-83
2024/01/03 11:39:52;;;;;;;1.08;0.88;;;13.00;99.90;;;;;;5031051;28;20252;-82
2024/01/03 11:42:18;;;;;;;1.77;0.85;;;13.70;99.90;;;;;;5027481;28;20593;-82
2024/01/03 11:44:44;;;;;;;2.67;1.70;;;13.80;99.90;;;;;;5027532;28;20778;-83
2024/01/03 11:47:11;;;;;;;1.33;0.90;;;14.30;99.90;;;;;;5032009;28;20186;-82
2024/01/03 11:49:37;;;;;;;1.02;0.80;;;13.90;99.90;;;;;;5033770;28;21003;-82
2024/01/03 11:52:02;;;;;;;1.53;0.77;;;14.00;99.90;;;;;;5033022;28;20186;-82
2024/01/03 11:54:28;;;;;;;0.90;0.70;;;13.60;99.90;;;;;;5032091;28;20627;-82
2024/01/03 11:56:56;;;;;;;0.90;0.60;;;13.80;99.90;;;;;;5031497;28;20222;-83
2024/01/03 11:59:22;;;;;;;2.38;0.73;;;13.50;99.90;;;;;;5031389;28;20643;-83
2024/01/03 12:02:00;;;;;;;2.95;0.70;;;13.40;99.90;;;;;;5031922;28;20225;-82
2024/01/03 12:04:27;;;;;;;2.30;0.80;;;12.70;99.90;;;;;;5030710;28;20209;-82
2024/01/03 12:06:56;;;;;;;1.13;1.00;;;13.10;99.90;;;;;;5031889;28;20236;-82
2024/01/03 12:09:22;;;;;;;2.25;0.90;;;13.00;99.90;;;;;;5033841;28;20182;-82
2024/01/03 12:11:48;;;;;;;2.67;1.23;;;13.20;99.90;;;;;;5032616;28;20198;-82
2024/01/03 12:14:17;;;;;;;2.83;0.80;;;12.70;99.90;;;;;;5033611;28;20210;-82
2024/01/03 12:16:53;;;;;;;2.20;0.98;;;12.80;99.90;;;;;;5032283;28;20457;-82
2024/01/03 12:19:24;;;;;;;1.50;0.90;;;13.30;99.90;;;;;;5031614;28;20670;-81
2024/01/03 12:22:01;;;;;;;3.95;0.80;;;13.10;99.90;;;;;;5030801;28;20218;-81
2024/01/03 12:24:43;;;;;;;2.03;0.90;;;13.30;99.90;;;;;;5033867;28;20201;-82
2024/01/03 12:27:10;;;;;;;1.20;0.85;;;12.50;99.90;;;;;;5031207;28;20189;-82
2024/01/03 12:29:37;;;;;;;2.35;0.88;;;13.00;99.90;;;;;;5033480;28;20185;-82
2024/01/03 12:32:16;;;;;;;1.33;0.82;;;12.60;99.90;;;;;;5031148;28;20647;-82
2024/01/03 12:34:43;;;;;;;1.38;1.08;;;12.60;99.90;;;;;;5030117;28;20274;-82
2024/01/03 12:37:08;;;;;;;1.00;0.80;;;12.60;99.90;;;;;;5029047;28;20186;-81
2024/01/03 12:39:38;;;;;;;4.00;0.80;;;12.70;99.90;;;;;;5031154;28;20208;-81
2024/01/03 12:42:04;;;;;;;1.27;1.02;;;12.40;99.90;;;;;;5028986;28;20229;-80
2024/01/03 12:44:34;;;;;;;1.02;0.60;;;12.30;99.90;;;;;;5031982;28;20206;-82
2024/01/03 12:46:59;;;;;;;1.60;0.63;;;12.30;99.90;;;;;;5033085;28;20178;-82